Terminal Aerodrome Forecast
Issued by NWS

Home | Current Version | Previous Version | Text Only | Print | Product List | Glossary On
Versions: 1 2 3 4 5 6 7 8 9 10 11 12 13 14 15 16 17 18 19 20 21 22 23 24 25
000
FTPA31 PHFO 240529
TAFHTO
TAF
PHTO 240529Z 2406/2506 22005KT P6SM VCSH SCT025 BKN040
     FM240800 23006KT 6SM -SHRA SCT020 BKN035
     FM242100 13013G21KT P6SM VCSH SCT030 BKN040
     FM250500 22004KT P6SM VCSH SCT030 BKN040=

USA.gov is the U.S. government's official web portal to all federal, state and local government web resources and services.